createdAt,value
2018-10-21T00:01:54.224Z,27.55
2018-10-21T00:04:21.686Z,27.42
2018-10-21T00:06:49.212Z,29.12
2018-10-21T00:09:16.754Z,25.62
2018-10-21T00:11:44.245Z,25.65
2018-10-21T00:14:11.715Z,26.15
2018-10-21T00:16:40.206Z,22.15
2018-10-21T00:19:07.694Z,27.75
2018-10-21T00:21:35.151Z,30.83
2018-10-21T00:24:02.599Z,28.45
2018-10-21T00:26:30.120Z,26.10
2018-10-21T00:28:57.575Z,25.27
2018-10-21T00:31:25.026Z,27.90
2018-10-21T00:33:52.535Z,28.45
2018-10-21T00:36:19.961Z,30.27
2018-10-21T00:38:47.384Z,27.02
2018-10-21T00:41:14.798Z,25.67
2018-10-21T00:43:42.280Z,24.08
2018-10-21T00:46:09.764Z,24.75
2018-10-21T00:48:37.257Z,29.60
2018-10-21T00:51:04.767Z,27.75
2018-10-21T00:53:32.265Z,28.58
2018-10-21T00:55:59.817Z,25.65
2018-10-21T00:58:27.252Z,27.35
2018-10-21T01:00:54.715Z,28.15
2018-10-21T01:03:22.280Z,30.10
2018-10-21T01:05:49.694Z,27.13
2018-10-21T01:08:17.118Z,26.42
2018-10-21T01:10:44.526Z,25.70
2018-10-21T01:13:12.032Z,28.75
2018-10-21T01:15:39.430Z,24.63
2018-10-21T01:18:06.836Z,23.48
2018-10-21T01:20:34.288Z,28.23
2018-10-21T01:23:01.766Z,25.95
2018-10-21T01:25:29.875Z,24.92
2018-10-21T01:27:57.321Z,25.30
2018-10-21T01:30:24.770Z,27.85
2018-10-21T01:32:52.217Z,27.95
2018-10-21T01:35:19.692Z,25.48
2018-10-21T01:37:47.223Z,28.05
2018-10-21T01:40:24.682Z,25.40
2018-10-21T01:42:52.116Z,25.98
2018-10-21T01:45:19.598Z,24.58
2018-10-21T01:47:47.010Z,23.75
2018-10-21T01:50:14.507Z,22.65
2018-10-21T01:52:42.500Z,24.55
2018-10-21T01:55:09.952Z,23.38
2018-10-21T01:57:37.391Z,27.35
2018-10-21T02:00:04.877Z,28.95
2018-10-21T02:02:32.324Z,28.83
2018-10-21T02:05:00.315Z,24.87
2018-10-21T02:07:27.728Z,22.90
2018-10-21T02:09:55.176Z,26.27
2018-10-21T02:12:22.610Z,27.98
2018-10-21T02:14:50.083Z,23.50
2018-10-21T02:17:17.504Z,23.80
2018-10-21T02:19:44.987Z,24.87
2018-10-21T02:22:12.455Z,24.73
2018-10-21T02:24:39.887Z,24.52
2018-10-21T02:27:07.403Z,28.23
2018-10-21T02:29:34.815Z,29.55
2018-10-21T02:32:02.246Z,27.92
2018-10-21T02:34:29.732Z,27.30
2018-10-21T02:36:57.161Z,28.20
2018-10-21T02:39:24.624Z,28.87
2018-10-21T02:41:52.030Z,28.80
2018-10-21T02:44:20.089Z,27.45
2018-10-21T02:46:47.550Z,26.37
2018-10-21T02:49:14.969Z,28.75
2018-10-21T02:51:42.394Z,28.05
2018-10-21T02:54:09.855Z,24.85
2018-10-21T02:56:37.449Z,26.75
2018-10-21T02:59:04.879Z,26.12
2018-10-21T03:01:32.338Z,29.73
2018-10-21T03:03:59.766Z,25.30
2018-10-21T03:06:27.203Z,27.17
2018-10-21T03:08:54.702Z,26.05
2018-10-21T03:11:22.123Z,29.35
2018-10-21T03:13:49.694Z,28.35
2018-10-21T03:16:17.143Z,28.90
2018-10-21T03:18:44.583Z,31.27
2018-10-21T03:21:12.065Z,29.37
2018-10-21T03:23:39.462Z,28.17
2018-10-21T03:26:06.911Z,25.75
2018-10-21T03:28:34.362Z,30.92
2018-10-21T03:31:01.918Z,29.40
2018-10-21T03:33:29.917Z,28.90
2018-10-21T03:35:57.311Z,27.73
2018-10-21T03:38:24.804Z,29.75
2018-10-21T03:40:52.246Z,29.92
2018-10-21T03:43:19.687Z,29.42
2018-10-21T03:45:47.121Z,25.92
2018-10-21T03:48:14.590Z,29.00
2018-10-21T03:50:42.156Z,29.90
2018-10-21T03:53:09.646Z,27.80
2018-10-21T03:55:37.176Z,30.25
2018-10-21T03:58:04.701Z,29.05
2018-10-21T04:00:32.154Z,29.92
2018-10-21T04:02:59.625Z,29.95
2018-10-21T04:05:27.422Z,27.83
2018-10-21T04:07:54.871Z,28.98
2018-10-21T04:10:22.346Z,28.15
2018-10-21T04:12:49.816Z,30.35
2018-10-21T04:15:17.279Z,31.33
2018-10-21T04:17:44.724Z,28.95
2018-10-21T04:20:12.149Z,31.58
2018-10-21T04:22:39.601Z,27.27
2018-10-21T04:25:07.031Z,27.95
2018-10-21T04:27:34.459Z,26.85
2018-10-21T04:30:01.921Z,20.73
2018-10-21T04:32:29.435Z,24.50
2018-10-21T04:34:56.849Z,26.42
2018-10-21T04:37:35.096Z,27.33
2018-10-21T04:40:10.507Z,25.52
2018-10-21T04:42:37.943Z,29.27
2018-10-21T04:45:05.381Z,23.52
2018-10-21T04:47:32.807Z,20.20
2018-10-21T04:50:00.212Z,24.00
2018-10-21T04:52:27.658Z,20.70
2018-10-21T04:54:55.780Z,21.10
2018-10-21T04:57:23.257Z,24.48
2018-10-21T04:59:50.684Z,23.30
2018-10-21T05:02:18.135Z,18.23
2018-10-21T05:04:45.608Z,21.92
2018-10-21T05:07:13.088Z,22.40
2018-10-21T05:09:40.552Z,27.48
2018-10-21T05:12:08.035Z,26.00
2018-10-21T05:14:35.496Z,22.23
2018-10-21T05:17:02.910Z,28.12
2018-10-21T05:19:30.403Z,25.05
2018-10-21T05:21:57.945Z,26.62
2018-10-21T05:24:25.320Z,24.58
2018-10-21T05:26:52.763Z,26.75
2018-10-21T05:29:20.200Z,23.87
2018-10-21T05:31:47.644Z,23.27
2018-10-21T05:34:15.270Z,26.55
2018-10-21T05:36:42.728Z,25.62
2018-10-21T05:39:10.961Z,25.02
2018-10-21T05:41:38.442Z,28.40
2018-10-21T05:44:05.884Z,20.35
2018-10-21T05:46:33.373Z,22.50
2018-10-21T05:49:01.686Z,20.00
2018-10-21T05:51:29.207Z,24.05
2018-10-21T05:53:56.642Z,22.37
2018-10-21T05:56:24.071Z,25.40
2018-10-21T05:58:51.520Z,24.10
2018-10-21T06:01:18.963Z,18.10
2018-10-21T06:03:46.401Z,20.60
2018-10-21T06:06:13.829Z,18.73
2018-10-21T06:08:41.397Z,19.77
2018-10-21T06:11:08.878Z,20.15
2018-10-21T06:13:36.349Z,16.77
2018-10-21T06:16:03.832Z,18.83
2018-10-21T06:18:31.280Z,19.77
2018-10-21T06:20:58.779Z,17.20
2018-10-21T06:23:26.437Z,17.30
2018-10-21T06:25:54.012Z,18.15
2018-10-21T06:28:21.505Z,15.82
2018-10-21T06:30:49.918Z,16.85
2018-10-21T06:33:17.458Z,20.65
2018-10-21T06:35:44.835Z,23.00
2018-10-21T06:38:12.242Z,21.62
2018-10-21T06:40:39.670Z,18.30
2018-10-21T06:43:07.153Z,20.30
2018-10-21T06:45:34.591Z,19.17
2018-10-21T06:48:02.174Z,19.95
2018-10-21T06:50:29.678Z,20.35
2018-10-21T06:52:57.098Z,20.92
2018-10-21T06:55:24.518Z,20.37
2018-10-21T06:57:51.956Z,18.10
2018-10-21T07:00:19.445Z,26.30
2018-10-21T07:02:46.942Z,21.77
2018-10-21T07:05:14.384Z,22.42
2018-10-21T07:07:41.826Z,20.08
2018-10-21T07:10:09.307Z,29.20
2018-10-21T07:12:36.717Z,27.35
2018-10-21T07:15:04.184Z,26.10
2018-10-21T07:17:31.607Z,23.87
2018-10-21T07:19:59.092Z,26.67
2018-10-21T07:22:26.549Z,23.00
2018-10-21T07:24:54.023Z,26.70
2018-10-21T07:27:21.533Z,24.65
2018-10-21T07:29:49.335Z,26.40
2018-10-21T07:32:16.911Z,25.90
2018-10-21T07:34:44.421Z,27.60
2018-10-21T07:37:11.870Z,24.52
2018-10-21T07:39:39.380Z,29.42
2018-10-21T07:42:06.880Z,25.55
2018-10-21T07:44:35.126Z,27.50
2018-10-21T07:47:02.764Z,28.62
2018-10-21T07:49:30.228Z,27.42
2018-10-21T07:51:57.755Z,26.17
2018-10-21T07:54:25.228Z,25.77
2018-10-21T07:56:52.701Z,27.30
2018-10-21T07:59:20.227Z,28.23
2018-10-21T08:01:47.726Z,28.12
2018-10-21T08:04:15.525Z,27.98
2018-10-21T08:09:42.917Z,44.00
2018-10-21T08:12:11.421Z,31.80
2018-10-21T08:14:38.969Z,28.75
2018-10-21T08:17:06.363Z,31.15
2018-10-21T08:19:33.844Z,30.30
2018-10-21T08:22:01.310Z,29.42
2018-10-21T08:24:28.754Z,32.97
2018-10-21T08:26:56.200Z,31.10
2018-10-21T08:29:23.659Z,31.02
2018-10-21T08:31:51.413Z,32.90
2018-10-21T08:34:18.937Z,27.80
2018-10-21T08:36:46.410Z,28.30
2018-10-21T08:39:13.867Z,29.85
2018-10-21T08:41:41.285Z,30.50
2018-10-21T08:44:08.900Z,29.55
2018-10-21T08:46:36.419Z,30.27
2018-10-21T08:49:04.341Z,27.13
2018-10-21T08:51:31.701Z,29.17
2018-10-21T08:53:59.207Z,29.02
2018-10-21T08:56:26.670Z,31.10
2018-10-21T08:58:54.094Z,32.30
2018-10-21T09:01:21.529Z,27.62
2018-10-21T09:03:49.055Z,31.70
2018-10-21T09:06:16.571Z,28.70
2018-10-21T09:08:44.028Z,27.58
2018-10-21T09:11:11.517Z,27.40
2018-10-21T09:13:39.033Z,34.90
2018-10-21T09:16:06.525Z,28.30
2018-10-21T09:18:34.013Z,31.33
2018-10-21T09:21:01.472Z,32.22
2018-10-21T09:23:29.309Z,36.50
2018-10-21T09:25:56.793Z,32.08
2018-10-21T09:28:24.274Z,33.70
2018-10-21T09:30:51.717Z,34.85
2018-10-21T09:33:19.225Z,33.10
2018-10-21T09:35:46.713Z,32.05
2018-10-21T09:38:14.139Z,30.33
2018-10-21T09:40:41.693Z,33.97
2018-10-21T09:43:09.175Z,34.03
2018-10-21T09:45:36.588Z,29.65
2018-10-21T09:48:04.121Z,30.85
2018-10-21T09:50:32.075Z,38.00
2018-10-21T09:52:59.532Z,36.47
2018-10-21T09:55:27.083Z,33.63
2018-10-21T09:57:54.577Z,30.52
2018-10-21T10:00:22.248Z,31.02
2018-10-21T10:03:02.369Z,29.58
2018-10-21T10:05:29.940Z,28.62
2018-10-21T10:07:57.485Z,35.65
2018-10-21T10:10:25.088Z,35.85
2018-10-21T10:12:52.576Z,32.30
2018-10-21T10:15:19.991Z,36.83
2018-10-21T10:17:47.536Z,32.88
2018-10-21T10:20:15.550Z,35.20
2018-10-21T10:22:42.983Z,39.28
2018-10-21T10:25:10.524Z,37.05
2018-10-21T10:27:37.924Z,38.35
2018-10-21T10:30:05.381Z,37.95
2018-10-21T10:32:32.854Z,30.80
2018-10-21T10:35:00.286Z,35.65
2018-10-21T10:37:27.747Z,37.00
2018-10-21T10:39:55.243Z,39.70
2018-10-21T10:42:23.305Z,37.88
2018-10-21T10:44:50.762Z,38.10
2018-10-21T10:47:18.204Z,37.03
2018-10-21T10:49:45.664Z,35.65
2018-10-21T10:52:13.192Z,32.47
2018-10-21T10:54:40.583Z,40.35
2018-10-21T10:57:08.076Z,38.55
2018-10-21T10:59:35.600Z,38.33
2018-10-21T11:02:04.121Z,39.38
2018-10-21T11:04:31.578Z,37.92
2018-10-21T11:06:59.045Z,38.80
2018-10-21T11:09:26.465Z,36.63
2018-10-21T11:11:53.911Z,39.55
2018-10-21T11:14:21.529Z,45.50
2018-10-21T11:16:49.083Z,40.65
2018-10-21T11:19:16.653Z,38.70
2018-10-21T11:21:44.205Z,37.53
2018-10-21T11:24:11.776Z,41.10
2018-10-21T11:26:40.565Z,37.45
2018-10-21T11:29:08.034Z,35.67
2018-10-21T11:31:36.370Z,36.78
2018-10-21T11:34:03.991Z,38.72
2018-10-21T11:36:31.383Z,33.90
2018-10-21T11:38:58.827Z,31.77
2018-10-21T11:41:26.429Z,31.90
2018-10-21T11:43:53.855Z,34.25
2018-10-21T11:46:21.330Z,31.62
2018-10-21T11:48:48.707Z,36.15
2018-10-21T11:51:16.239Z,39.55
2018-10-21T11:53:44.006Z,45.83
2018-10-21T11:56:11.478Z,38.28
2018-10-21T11:58:38.995Z,40.22
2018-10-21T12:01:06.424Z,38.53
2018-10-21T12:03:33.849Z,36.58
2018-10-21T12:06:01.310Z,38.60
2018-10-21T12:08:29.183Z,38.33
2018-10-21T12:10:57.249Z,43.60
2018-10-21T12:13:24.752Z,40.58
2018-10-21T12:15:52.246Z,39.33
2018-10-21T12:18:20.247Z,35.78
2018-10-21T12:20:47.652Z,37.15
2018-10-21T12:23:15.178Z,33.13
2018-10-21T12:25:42.663Z,35.60
2018-10-21T12:28:10.208Z,32.20
2018-10-21T12:30:37.752Z,34.58
2018-10-21T12:33:05.364Z,35.75
2018-10-21T12:35:33.556Z,33.60
2018-10-21T12:38:00.997Z,35.85
2018-10-21T12:40:28.482Z,41.78
2018-10-21T12:42:55.998Z,38.92
2018-10-21T12:45:23.483Z,44.50
2018-10-21T12:47:50.915Z,40.63
2018-10-21T12:50:18.821Z,43.05
2018-10-21T12:52:46.343Z,43.28
2018-10-21T12:55:13.819Z,41.58
2018-10-21T12:57:41.223Z,41.60
2018-10-21T13:00:08.756Z,41.05
2018-10-21T13:02:36.266Z,41.25
2018-10-21T13:05:03.919Z,40.58
2018-10-21T13:07:31.426Z,34.63
2018-10-21T13:09:58.983Z,33.53
2018-10-21T13:12:26.443Z,38.55
2018-10-21T13:14:53.902Z,37.30
2018-10-21T13:17:21.401Z,43.22
2018-10-21T13:19:49.189Z,41.97
2018-10-21T13:22:16.779Z,42.35
2018-10-21T13:24:44.107Z,40.15
2018-10-21T13:27:11.712Z,43.50
2018-10-21T13:29:39.156Z,34.53
2018-10-21T13:32:06.679Z,39.78
2018-10-21T13:34:34.221Z,43.65
2018-10-21T13:37:01.718Z,39.83
2018-10-21T13:39:29.214Z,41.58
2018-10-21T13:41:56.713Z,42.67
2018-10-21T13:44:24.208Z,42.20
2018-10-21T13:46:51.946Z,45.40
2018-10-21T13:49:19.431Z,38.65
2018-10-21T13:51:46.938Z,34.90
2018-10-21T13:54:14.284Z,39.25
2018-10-21T13:56:42.792Z,39.40
2018-10-21T13:59:10.336Z,39.47
2018-10-21T14:01:38.048Z,38.83
2018-10-21T14:04:06.180Z,44.13
2018-10-21T14:06:33.667Z,38.08
2018-10-21T14:09:01.853Z,40.38
2018-10-21T14:11:29.339Z,47.42
2018-10-21T14:13:57.646Z,48.70
2018-10-21T14:16:25.263Z,43.28
2018-10-21T14:18:52.626Z,44.75
2018-10-21T14:21:20.020Z,43.42
2018-10-21T14:23:48.409Z,47.45
2018-10-21T14:26:16.040Z,47.67
2018-10-21T14:28:43.504Z,46.72
2018-10-21T14:31:11.102Z,41.95
2018-10-21T14:33:39.496Z,46.95
2018-10-21T14:36:06.980Z,46.88
2018-10-21T14:41:01.465Z,60.25
2018-10-21T14:43:28.954Z,55.60
2018-10-21T14:48:23.635Z,60.35
2018-10-21T14:50:51.283Z,71.05
2018-10-21T14:55:45.911Z,62.45
2018-10-21T14:58:13.373Z,67.85
2018-10-21T15:00:40.882Z,76.87
2018-10-21T15:03:08.680Z,55.20
2018-10-21T15:05:36.005Z,74.47
2018-10-21T15:08:03.608Z,58.73
2018-10-21T15:10:30.976Z,59.17
2018-10-21T15:12:58.395Z,60.92
2018-10-21T15:15:25.831Z,53.22
2018-10-21T15:17:54.610Z,49.13
2018-10-21T15:20:22.025Z,47.03
2018-10-21T15:22:49.500Z,48.50
2018-10-21T15:25:17.093Z,45.75
2018-10-21T15:27:44.555Z,39.17
2018-10-21T15:30:12.116Z,41.72
2018-10-21T15:32:39.526Z,44.22
2018-10-21T15:35:07.150Z,49.33
2018-10-21T15:37:34.670Z,44.78
2018-10-21T15:40:02.141Z,45.92
2018-10-21T15:42:29.598Z,37.85
2018-10-21T15:44:57.114Z,41.50
2018-10-21T15:47:24.556Z,42.22
2018-10-21T15:49:52.116Z,39.03
2018-10-21T15:52:19.661Z,36.63
2018-10-21T15:54:47.007Z,42.00
2018-10-21T15:57:14.662Z,37.75
2018-10-21T15:59:42.115Z,33.10
2018-10-21T16:02:09.777Z,32.47
2018-10-21T16:04:37.209Z,33.05
2018-10-21T16:07:04.817Z,33.00
2018-10-21T16:09:32.260Z,27.30
2018-10-21T16:11:59.816Z,27.05
2018-10-21T16:14:27.274Z,24.27
2018-10-21T16:16:54.688Z,21.27
2018-10-21T16:19:22.306Z,20.17
2018-10-21T16:21:49.706Z,20.92
2018-10-21T16:24:17.501Z,19.45
2018-10-21T16:26:45.531Z,19.92
2018-10-21T16:29:13.017Z,19.05
2018-10-21T16:31:40.523Z,14.95
2018-10-21T16:34:08.703Z,18.08
2018-10-21T16:36:36.341Z,11.98
2018-10-21T16:39:03.891Z,14.27
2018-10-21T16:41:31.384Z,13.40
2018-10-21T16:43:58.998Z,12.70
2018-10-21T16:46:26.480Z,11.35
2018-10-21T16:48:53.979Z,11.25
2018-10-21T16:51:21.705Z,12.77
2018-10-21T16:53:49.099Z,13.07
2018-10-21T16:56:16.580Z,13.80
2018-10-21T16:58:44.063Z,10.90
2018-10-21T17:01:11.802Z,13.73
2018-10-21T17:03:39.428Z,13.00
2018-10-21T17:06:06.770Z,10.68
2018-10-21T17:08:34.259Z,11.95
2018-10-21T17:11:01.879Z,12.43
2018-10-21T17:13:29.416Z,12.27
2018-10-21T17:15:56.926Z,9.60
2018-10-21T17:18:24.374Z,12.13
2018-10-21T17:20:52.304Z,12.30
2018-10-21T17:23:19.828Z,10.73
2018-10-21T17:25:48.121Z,11.02
2018-10-21T17:28:15.662Z,13.10
2018-10-21T17:30:43.118Z,13.73
2018-10-21T17:33:10.608Z,14.77
2018-10-21T17:35:38.251Z,13.93
2018-10-21T17:38:05.768Z,14.20
2018-10-21T17:40:33.297Z,14.48
2018-10-21T17:43:00.732Z,17.45
2018-10-21T17:45:28.277Z,15.70
2018-10-21T17:47:56.416Z,15.88
2018-10-21T17:50:24.068Z,17.15
2018-10-21T17:52:51.563Z,20.42
2018-10-21T17:55:19.068Z,20.02
2018-10-21T17:57:46.518Z,17.40
2018-10-21T18:00:13.987Z,21.25
2018-10-21T18:02:41.495Z,19.67
2018-10-21T18:05:09.121Z,22.65
2018-10-21T18:07:36.602Z,17.17
2018-10-21T18:10:04.313Z,18.55
2018-10-21T18:12:31.871Z,18.42
2018-10-21T18:14:59.318Z,20.85
2018-10-21T18:17:26.820Z,17.75
2018-10-21T18:19:54.305Z,17.15
2018-10-21T18:22:21.696Z,17.50
2018-10-21T18:24:49.135Z,15.82
2018-10-21T18:27:16.780Z,20.30
2018-10-21T18:29:44.306Z,20.65
2018-10-21T18:32:11.763Z,21.98
2018-10-21T18:34:39.234Z,19.80
2018-10-21T18:37:06.900Z,20.25
2018-10-21T18:39:34.355Z,20.55
2018-10-21T18:42:01.813Z,25.42
2018-10-21T18:44:29.315Z,23.58
2018-10-21T18:46:56.754Z,20.83
2018-10-21T18:49:24.253Z,23.92
2018-10-21T18:51:52.785Z,21.80
2018-10-21T18:54:20.473Z,22.00
2018-10-21T18:56:47.998Z,24.23
2018-10-21T18:59:16.336Z,25.48
2018-10-21T19:01:43.919Z,26.60
2018-10-21T19:04:11.525Z,22.20
2018-10-21T19:06:39.117Z,18.92
2018-10-21T19:09:06.638Z,21.83
2018-10-21T19:11:34.081Z,21.92
2018-10-21T19:14:01.643Z,20.23
2018-10-21T19:16:29.133Z,23.80
2018-10-21T19:18:56.758Z,22.48
2018-10-21T19:21:24.185Z,23.58
2018-10-21T19:23:51.708Z,20.58
2018-10-21T19:26:19.246Z,22.87
2018-10-21T19:28:46.704Z,23.58
2018-10-21T19:31:14.319Z,21.48
2018-10-21T19:33:41.775Z,26.33
2018-10-21T19:36:09.282Z,25.92
2018-10-21T19:38:36.804Z,25.80
2018-10-21T19:41:04.315Z,24.70
2018-10-21T19:43:31.929Z,24.20
2018-10-21T19:46:00.200Z,26.70
2018-10-21T19:48:27.688Z,23.08
2018-10-21T19:50:55.145Z,24.30
2018-10-21T19:53:22.696Z,23.73
2018-10-21T19:55:50.231Z,28.62
2018-10-21T19:58:17.888Z,24.10
2018-10-21T20:00:45.275Z,25.48
2018-10-21T20:03:12.804Z,26.20
2018-10-21T20:05:40.235Z,25.70
2018-10-21T20:08:07.691Z,21.77
2018-10-21T20:10:35.267Z,22.85
2018-10-21T20:13:02.767Z,24.75
2018-10-21T20:15:30.241Z,22.70
2018-10-21T20:17:57.830Z,23.55
2018-10-21T20:20:25.469Z,24.42
2018-10-21T20:22:52.886Z,23.20
2018-10-21T20:25:20.486Z,26.80
2018-10-21T20:27:47.955Z,26.15
2018-10-21T20:30:16.087Z,25.10
2018-10-21T20:32:43.677Z,25.15
2018-10-21T20:35:11.094Z,24.45
2018-10-21T20:37:38.548Z,22.17
2018-10-21T20:40:06.096Z,26.20
2018-10-21T20:42:33.558Z,28.40
2018-10-21T20:45:01.238Z,23.45
2018-10-21T20:47:28.712Z,24.65
2018-10-21T20:49:56.857Z,19.87
2018-10-21T20:52:25.226Z,25.20
2018-10-21T20:54:52.800Z,22.55
2018-10-21T20:57:20.262Z,21.92
2018-10-21T20:59:47.755Z,24.70
2018-10-21T21:02:15.299Z,24.85
2018-10-21T21:04:42.888Z,23.23
2018-10-21T21:07:10.588Z,23.95
2018-10-21T21:09:38.561Z,24.05
2018-10-21T21:12:06.030Z,24.48
2018-10-21T21:14:33.453Z,21.30
2018-10-21T21:17:00.932Z,22.15
2018-10-21T21:19:28.414Z,21.95
2018-10-21T21:21:55.929Z,22.02
2018-10-21T21:24:23.399Z,22.20
2018-10-21T21:26:50.893Z,21.30
2018-10-21T21:29:18.612Z,23.48
2018-10-21T21:31:46.101Z,25.12
2018-10-21T21:34:13.922Z,21.00
2018-10-21T21:36:41.319Z,20.00
2018-10-21T21:39:08.780Z,26.42
2018-10-21T21:41:36.214Z,23.45
2018-10-21T21:44:03.678Z,23.67
2018-10-21T21:46:31.137Z,24.87
2018-10-21T21:48:58.558Z,22.00
2018-10-21T21:51:26.143Z,22.48
2018-10-21T21:53:53.815Z,20.65
2018-10-21T21:56:21.304Z,21.15
2018-10-21T21:58:49.394Z,19.58
2018-10-21T22:01:16.883Z,22.75
2018-10-21T22:03:44.551Z,19.62
2018-10-21T22:06:12.089Z,19.50
2018-10-21T22:08:39.446Z,24.00
2018-10-21T22:11:07.247Z,24.20
2018-10-21T22:13:34.738Z,23.75
2018-10-21T22:16:02.274Z,22.85
2018-10-21T22:18:29.828Z,19.23
2018-10-21T22:20:57.243Z,21.70
2018-10-21T22:23:24.773Z,23.38
2018-10-21T22:25:52.213Z,24.00
2018-10-21T22:28:19.658Z,24.73
2018-10-21T22:30:47.188Z,22.23
2018-10-21T22:33:14.626Z,22.17
2018-10-21T22:35:42.086Z,21.75
2018-10-21T22:38:09.626Z,22.55
2018-10-21T22:40:37.082Z,23.67
2018-10-21T22:43:04.527Z,21.80
2018-10-21T22:45:31.999Z,21.80
2018-10-21T22:47:59.497Z,19.55
2018-10-21T22:50:26.993Z,22.45
2018-10-21T22:52:54.442Z,22.17
2018-10-21T22:55:21.898Z,21.65
2018-10-21T22:57:49.423Z,23.77
2018-10-21T23:00:16.851Z,23.73
2018-10-21T23:02:44.317Z,23.27
2018-10-21T23:05:11.764Z,20.37
2018-10-21T23:07:39.215Z,19.05
2018-10-21T23:10:07.017Z,24.35
2018-10-21T23:12:34.450Z,20.75
2018-10-21T23:15:01.889Z,19.73
2018-10-21T23:17:29.313Z,19.25
2018-10-21T23:19:56.712Z,19.80
2018-10-21T23:22:24.189Z,18.87
2018-10-21T23:24:52.068Z,22.55
2018-10-21T23:27:19.503Z,19.95
2018-10-21T23:29:46.920Z,22.42
2018-10-21T23:32:14.672Z,16.62
2018-10-21T23:34:42.150Z,18.23
2018-10-21T23:37:09.604Z,17.52
2018-10-21T23:39:37.006Z,17.92
2018-10-21T23:42:04.514Z,18.73
2018-10-21T23:44:31.988Z,21.87
2018-10-21T23:46:59.456Z,22.30
2018-10-21T23:49:26.922Z,17.15
2018-10-21T23:51:54.499Z,18.00
2018-10-21T23:54:21.907Z,19.37
2018-10-21T23:56:49.363Z,16.08
2018-10-21T23:59:17.175Z,15.98
